sensor_id;sensor_type;location;lat;lon;timestamp;P1;durP1;ratioP1;P2;durP2;ratioP2
14770;SDS011;7477;45.222;5.688;2023-05-14T00:03:17;1.67;;;0.93;;
14770;SDS011;7477;45.222;5.688;2023-05-14T00:06:36;1.13;;;1.05;;
14770;SDS011;7477;45.222;5.688;2023-05-14T00:09:56;0.80;;;0.80;;
14770;SDS011;7477;45.222;5.688;2023-05-14T00:13:16;1.33;;;1.00;;
14770;SDS011;7477;45.222;5.688;2023-05-14T00:16:35;1.20;;;1.08;;
14770;SDS011;7477;45.222;5.688;2023-05-14T00:19:55;1.17;;;1.08;;
14770;SDS011;7477;45.222;5.688;2023-05-14T00:23:14;2.63;;;0.82;;
14770;SDS011;7477;45.222;5.688;2023-05-14T00:26:33;2.33;;;0.80;;
14770;SDS011;7477;45.222;5.688;2023-05-14T00:29:52;2.40;;;1.02;;
14770;SDS011;7477;45.222;5.688;2023-05-14T00:33:12;0.82;;;0.82;;
14770;SDS011;7477;45.222;5.688;2023-05-14T00:36:31;1.10;;;1.00;;
14770;SDS011;7477;45.222;5.688;2023-05-14T00:39:50;2.28;;;1.20;;
14770;SDS011;7477;45.222;5.688;2023-05-14T00:43:09;0.90;;;0.88;;
14770;SDS011;7477;45.222;5.688;2023-05-14T00:46:29;9.07;;;1.08;;
14770;SDS011;7477;45.222;5.688;2023-05-14T00:49:49;0.68;;;0.68;;
14770;SDS011;7477;45.222;5.688;2023-05-14T00:53:09;3.55;;;1.08;;
14770;SDS011;7477;45.222;5.688;2023-05-14T00:56:29;1.48;;;1.20;;
14770;SDS011;7477;45.222;5.688;2023-05-14T00:59:49;1.30;;;0.93;;
14770;SDS011;7477;45.222;5.688;2023-05-14T01:03:09;0.80;;;0.80;;
14770;SDS011;7477;45.222;5.688;2023-05-14T01:06:37;1.50;;;0.95;;
14770;SDS011;7477;45.222;5.688;2023-05-14T01:09:59;3.17;;;1.20;;
14770;SDS011;7477;45.222;5.688;2023-05-14T01:13:43;3.08;;;1.25;;
14770;SDS011;7477;45.222;5.688;2023-05-14T01:17:05;2.65;;;0.98;;
14770;SDS011;7477;45.222;5.688;2023-05-14T01:20:26;0.65;;;0.65;;
14770;SDS011;7477;45.222;5.688;2023-05-14T01:23:46;1.83;;;1.10;;
14770;SDS011;7477;45.222;5.688;2023-05-14T01:30:36;0.70;;;0.70;;
14770;SDS011;7477;45.222;5.688;2023-05-14T01:34:18;0.77;;;0.77;;
14770;SDS011;7477;45.222;5.688;2023-05-14T01:37:40;1.27;;;0.70;;
14770;SDS011;7477;45.222;5.688;2023-05-14T01:41:01;1.90;;;0.93;;
14770;SDS011;7477;45.222;5.688;2023-05-14T01:44:22;1.15;;;1.00;;
14770;SDS011;7477;45.222;5.688;2023-05-14T01:47:42;1.73;;;1.10;;
14770;SDS011;7477;45.222;5.688;2023-05-14T01:51:01;0.70;;;0.70;;
14770;SDS011;7477;45.222;5.688;2023-05-14T01:54:20;1.20;;;1.10;;
14770;SDS011;7477;45.222;5.688;2023-05-14T01:57:39;3.03;;;0.82;;
14770;SDS011;7477;45.222;5.688;2023-05-14T02:00:58;0.80;;;0.80;;
14770;SDS011;7477;45.222;5.688;2023-05-14T02:04:17;1.83;;;1.00;;
14770;SDS011;7477;45.222;5.688;2023-05-14T02:07:38;0.75;;;0.75;;
14770;SDS011;7477;45.222;5.688;2023-05-14T02:10:58;1.75;;;0.95;;
14770;SDS011;7477;45.222;5.688;2023-05-14T02:14:17;0.70;;;0.70;;
14770;SDS011;7477;45.222;5.688;2023-05-14T02:17:36;1.50;;;1.10;;
14770;SDS011;7477;45.222;5.688;2023-05-14T02:20:55;2.08;;;1.02;;
14770;SDS011;7477;45.222;5.688;2023-05-14T02:24:15;2.95;;;1.40;;
14770;SDS011;7477;45.222;5.688;2023-05-14T02:27:34;1.33;;;1.00;;
14770;SDS011;7477;45.222;5.688;2023-05-14T02:30:57;1.50;;;1.13;;
14770;SDS011;7477;45.222;5.688;2023-05-14T02:34:18;1.10;;;1.10;;
14770;SDS011;7477;45.222;5.688;2023-05-14T02:37:37;2.42;;;1.30;;
14770;SDS011;7477;45.222;5.688;2023-05-14T02:40:56;5.90;;;1.35;;
14770;SDS011;7477;45.222;5.688;2023-05-14T02:44:16;3.33;;;1.33;;
14770;SDS011;7477;45.222;5.688;2023-05-14T02:47:35;2.38;;;1.45;;
14770;SDS011;7477;45.222;5.688;2023-05-14T02:50:54;2.25;;;1.02;;
14770;SDS011;7477;45.222;5.688;2023-05-14T02:54:13;3.13;;;1.20;;
14770;SDS011;7477;45.222;5.688;2023-05-14T02:57:34;1.27;;;1.10;;
14770;SDS011;7477;45.222;5.688;2023-05-14T03:00:53;1.27;;;1.17;;
14770;SDS011;7477;45.222;5.688;2023-05-14T03:04:13;1.20;;;1.10;;
14770;SDS011;7477;45.222;5.688;2023-05-14T03:07:32;2.40;;;1.10;;
14770;SDS011;7477;45.222;5.688;2023-05-14T03:10:51;1.45;;;1.30;;
14770;SDS011;7477;45.222;5.688;2023-05-14T03:14:11;1.85;;;1.30;;
14770;SDS011;7477;45.222;5.688;2023-05-14T03:17:30;2.13;;;1.23;;
14770;SDS011;7477;45.222;5.688;2023-05-14T03:20:49;0.90;;;0.90;;
14770;SDS011;7477;45.222;5.688;2023-05-14T03:24:08;1.55;;;1.20;;
14770;SDS011;7477;45.222;5.688;2023-05-14T03:27:27;2.78;;;1.42;;
14770;SDS011;7477;45.222;5.688;2023-05-14T03:30:46;1.60;;;1.50;;
14770;SDS011;7477;45.222;5.688;2023-05-14T03:34:06;3.38;;;1.67;;
14770;SDS011;7477;45.222;5.688;2023-05-14T03:37:25;2.20;;;1.70;;
14770;SDS011;7477;45.222;5.688;2023-05-14T03:40:44;2.15;;;1.80;;
14770;SDS011;7477;45.222;5.688;2023-05-14T03:44:04;3.42;;;2.13;;
14770;SDS011;7477;45.222;5.688;2023-05-14T03:47:24;5.82;;;2.17;;
14770;SDS011;7477;45.222;5.688;2023-05-14T03:50:43;4.28;;;2.08;;
14770;SDS011;7477;45.222;5.688;2023-05-14T03:54:02;2.15;;;1.95;;
14770;SDS011;7477;45.222;5.688;2023-05-14T03:57:22;2.28;;;2.08;;
14770;SDS011;7477;45.222;5.688;2023-05-14T04:00:41;2.42;;;1.85;;
14770;SDS011;7477;45.222;5.688;2023-05-14T04:04:01;2.25;;;2.05;;
14770;SDS011;7477;45.222;5.688;2023-05-14T04:07:21;5.47;;;1.90;;
14770;SDS011;7477;45.222;5.688;2023-05-14T04:10:41;3.05;;;2.20;;
14770;SDS011;7477;45.222;5.688;2023-05-14T04:14:01;2.75;;;1.98;;
14770;SDS011;7477;45.222;5.688;2023-05-14T04:17:20;3.53;;;1.73;;
14770;SDS011;7477;45.222;5.688;2023-05-14T04:20:39;2.88;;;2.15;;
14770;SDS011;7477;45.222;5.688;2023-05-14T04:23:59;7.85;;;2.30;;
14770;SDS011;7477;45.222;5.688;2023-05-14T04:27:19;2.30;;;2.08;;
14770;SDS011;7477;45.222;5.688;2023-05-14T04:30:39;2.97;;;2.00;;
14770;SDS011;7477;45.222;5.688;2023-05-14T04:33:58;5.43;;;2.00;;
14770;SDS011;7477;45.222;5.688;2023-05-14T04:37:17;1.70;;;1.60;;
14770;SDS011;7477;45.222;5.688;2023-05-14T04:40:36;2.55;;;2.20;;
14770;SDS011;7477;45.222;5.688;2023-05-14T04:43:55;4.63;;;2.30;;
14770;SDS011;7477;45.222;5.688;2023-05-14T04:47:15;3.85;;;2.00;;
14770;SDS011;7477;45.222;5.688;2023-05-14T04:50:34;2.20;;;2.00;;
14770;SDS011;7477;45.222;5.688;2023-05-14T04:53:53;2.67;;;2.03;;
14770;SDS011;7477;45.222;5.688;2023-05-14T04:57:12;3.28;;;1.98;;
14770;SDS011;7477;45.222;5.688;2023-05-14T05:00:31;2.30;;;1.85;;
14770;SDS011;7477;45.222;5.688;2023-05-14T05:03:52;2.78;;;1.60;;
14770;SDS011;7477;45.222;5.688;2023-05-14T05:07:12;3.13;;;1.50;;
14770;SDS011;7477;45.222;5.688;2023-05-14T05:10:32;1.42;;;1.33;;
14770;SDS011;7477;45.222;5.688;2023-05-14T05:13:51;1.48;;;1.38;;
14770;SDS011;7477;45.222;5.688;2023-05-14T05:17:10;1.50;;;1.40;;
14770;SDS011;7477;45.222;5.688;2023-05-14T05:20:30;1.50;;;1.40;;
14770;SDS011;7477;45.222;5.688;2023-05-14T05:23:50;1.20;;;1.10;;
14770;SDS011;7477;45.222;5.688;2023-05-14T05:27:09;1.95;;;1.55;;
14770;SDS011;7477;45.222;5.688;2023-05-14T05:30:28;1.55;;;1.05;;
14770;SDS011;7477;45.222;5.688;2023-05-14T05:33:47;1.40;;;1.30;;
14770;SDS011;7477;45.222;5.688;2023-05-14T05:37:07;2.20;;;1.60;;
14770;SDS011;7477;45.222;5.688;2023-05-14T05:40:30;2.40;;;1.88;;
14770;SDS011;7477;45.222;5.688;2023-05-14T05:43:49;2.58;;;2.00;;
14770;SDS011;7477;45.222;5.688;2023-05-14T05:47:08;5.22;;;3.28;;
14770;SDS011;7477;45.222;5.688;2023-05-14T05:50:27;4.70;;;2.65;;
14770;SDS011;7477;45.222;5.688;2023-05-14T05:53:47;4.45;;;3.92;;
14770;SDS011;7477;45.222;5.688;2023-05-14T05:57:06;5.95;;;4.07;;
14770;SDS011;7477;45.222;5.688;2023-05-14T06:00:25;4.22;;;3.42;;
14770;SDS011;7477;45.222;5.688;2023-05-14T06:03:44;3.78;;;3.13;;
14770;SDS011;7477;45.222;5.688;2023-05-14T06:07:03;3.35;;;2.42;;
14770;SDS011;7477;45.222;5.688;2023-05-14T06:10:22;2.60;;;2.40;;
14770;SDS011;7477;45.222;5.688;2023-05-14T06:13:42;3.00;;;2.70;;
14770;SDS011;7477;45.222;5.688;2023-05-14T06:17:01;3.35;;;2.80;;
14770;SDS011;7477;45.222;5.688;2023-05-14T06:20:20;2.55;;;2.35;;
14770;SDS011;7477;45.222;5.688;2023-05-14T06:23:39;4.38;;;2.47;;
14770;SDS011;7477;45.222;5.688;2023-05-14T06:26:59;4.00;;;3.42;;
14770;SDS011;7477;45.222;5.688;2023-05-14T06:30:18;5.78;;;4.43;;
14770;SDS011;7477;45.222;5.688;2023-05-14T06:33:38;3.88;;;3.47;;
14770;SDS011;7477;45.222;5.688;2023-05-14T06:36:57;4.13;;;3.63;;
14770;SDS011;7477;45.222;5.688;2023-05-14T06:40:17;4.28;;;3.15;;
14770;SDS011;7477;45.222;5.688;2023-05-14T06:43:36;2.90;;;2.60;;
14770;SDS011;7477;45.222;5.688;2023-05-14T06:46:55;3.97;;;3.00;;
14770;SDS011;7477;45.222;5.688;2023-05-14T06:50:14;3.10;;;2.78;;
14770;SDS011;7477;45.222;5.688;2023-05-14T06:53:34;3.28;;;2.88;;
14770;SDS011;7477;45.222;5.688;2023-05-14T06:56:53;3.50;;;3.05;;
14770;SDS011;7477;45.222;5.688;2023-05-14T07:00:13;3.00;;;2.70;;
14770;SDS011;7477;45.222;5.688;2023-05-14T07:03:33;3.30;;;2.90;;
14770;SDS011;7477;45.222;5.688;2023-05-14T07:06:52;3.13;;;2.83;;
14770;SDS011;7477;45.222;5.688;2023-05-14T07:10:11;3.08;;;2.60;;
14770;SDS011;7477;45.222;5.688;2023-05-14T07:13:31;3.00;;;2.15;;
14770;SDS011;7477;45.222;5.688;2023-05-14T07:16:50;3.00;;;2.55;;
14770;SDS011;7477;45.222;5.688;2023-05-14T07:20:09;2.70;;;2.50;;
14770;SDS011;7477;45.222;5.688;2023-05-14T07:23:29;1.98;;;1.88;;
14770;SDS011;7477;45.222;5.688;2023-05-14T07:26:48;3.05;;;2.60;;
14770;SDS011;7477;45.222;5.688;2023-05-14T07:30:08;3.05;;;2.75;;
14770;SDS011;7477;45.222;5.688;2023-05-14T07:33:27;2.97;;;2.67;;
14770;SDS011;7477;45.222;5.688;2023-05-14T07:36:47;4.00;;;3.20;;
14770;SDS011;7477;45.222;5.688;2023-05-14T07:40:06;4.45;;;3.47;;
14770;SDS011;7477;45.222;5.688;2023-05-14T07:43:26;4.00;;;3.58;;
14770;SDS011;7477;45.222;5.688;2023-05-14T07:46:45;5.05;;;3.40;;
14770;SDS011;7477;45.222;5.688;2023-05-14T07:50:05;3.88;;;3.13;;
14770;SDS011;7477;45.222;5.688;2023-05-14T07:53:25;14.98;;;13.50;;
14770;SDS011;7477;45.222;5.688;2023-05-14T07:56:44;6.50;;;5.80;;
14770;SDS011;7477;45.222;5.688;2023-05-14T08:00:04;5.50;;;4.68;;
14770;SDS011;7477;45.222;5.688;2023-05-14T08:03:27;5.38;;;4.65;;
14770;SDS011;7477;45.222;5.688;2023-05-14T08:06:47;4.80;;;4.30;;
14770;SDS011;7477;45.222;5.688;2023-05-14T08:10:06;4.70;;;4.25;;
14770;SDS011;7477;45.222;5.688;2023-05-14T08:13:26;4.53;;;4.13;;
14770;SDS011;7477;45.222;5.688;2023-05-14T08:16:46;4.63;;;4.03;;
14770;SDS011;7477;45.222;5.688;2023-05-14T08:20:06;4.78;;;4.25;;
14770;SDS011;7477;45.222;5.688;2023-05-14T08:23:26;4.75;;;4.25;;
14770;SDS011;7477;45.222;5.688;2023-05-14T08:26:45;4.90;;;4.28;;
14770;SDS011;7477;45.222;5.688;2023-05-14T08:30:05;5.88;;;4.45;;
14770;SDS011;7477;45.222;5.688;2023-05-14T08:33:24;4.85;;;4.35;;
14770;SDS011;7477;45.222;5.688;2023-05-14T08:36:43;4.88;;;4.38;;
14770;SDS011;7477;45.222;5.688;2023-05-14T08:40:02;5.35;;;4.85;;
14770;SDS011;7477;45.222;5.688;2023-05-14T08:43:24;6.15;;;4.97;;
14770;SDS011;7477;45.222;5.688;2023-05-14T08:46:45;5.75;;;5.10;;
14770;SDS011;7477;45.222;5.688;2023-05-14T08:50:06;6.07;;;5.47;;
14770;SDS011;7477;45.222;5.688;2023-05-14T08:53:26;4.93;;;4.35;;
14770;SDS011;7477;45.222;5.688;2023-05-14T08:56:45;6.97;;;4.57;;
14770;SDS011;7477;45.222;5.688;2023-05-14T09:00:05;5.15;;;4.65;;
14770;SDS011;7477;45.222;5.688;2023-05-14T09:03:26;5.35;;;4.30;;
14770;SDS011;7477;45.222;5.688;2023-05-14T09:06:47;3.85;;;3.55;;
14770;SDS011;7477;45.222;5.688;2023-05-14T09:10:08;4.25;;;3.85;;
14770;SDS011;7477;45.222;5.688;2023-05-14T09:13:28;4.53;;;4.13;;
14770;SDS011;7477;45.222;5.688;2023-05-14T09:16:48;4.07;;;3.67;;
14770;SDS011;7477;45.222;5.688;2023-05-14T09:20:08;4.13;;;3.72;;
14770;SDS011;7477;45.222;5.688;2023-05-14T09:23:31;4.55;;;3.92;;
14770;SDS011;7477;45.222;5.688;2023-05-14T09:26:52;4.40;;;3.10;;
14770;SDS011;7477;45.222;5.688;2023-05-14T09:30:12;3.53;;;3.22;;
14770;SDS011;7477;45.222;5.688;2023-05-14T09:33:32;4.65;;;4.25;;
14770;SDS011;7477;45.222;5.688;2023-05-14T09:37:01;3.53;;;3.03;;
14770;SDS011;7477;45.222;5.688;2023-05-14T09:40:22;3.78;;;3.30;;
14770;SDS011;7477;45.222;5.688;2023-05-14T09:43:41;4.50;;;3.05;;
14770;SDS011;7477;45.222;5.688;2023-05-14T09:47:01;4.93;;;3.20;;
14770;SDS011;7477;45.222;5.688;2023-05-14T09:50:22;2.58;;;2.38;;
14770;SDS011;7477;45.222;5.688;2023-05-14T09:53:41;2.58;;;2.38;;
14770;SDS011;7477;45.222;5.688;2023-05-14T09:57:02;4.47;;;3.20;;
14770;SDS011;7477;45.222;5.688;2023-05-14T10:00:21;2.67;;;2.47;;
14770;SDS011;7477;45.222;5.688;2023-05-14T10:03:40;4.22;;;2.78;;
14770;SDS011;7477;45.222;5.688;2023-05-14T10:07:00;3.13;;;2.75;;
14770;SDS011;7477;45.222;5.688;2023-05-14T10:10:20;2.88;;;2.67;;
14770;SDS011;7477;45.222;5.688;2023-05-14T10:13:45;4.95;;;3.40;;
14770;SDS011;7477;45.222;5.688;2023-05-14T10:17:08;3.08;;;2.78;;
14770;SDS011;7477;45.222;5.688;2023-05-14T10:20:36;5.50;;;4.97;;
14770;SDS011;7477;45.222;5.688;2023-05-14T10:23:57;4.70;;;2.63;;
14770;SDS011;7477;45.222;5.688;2023-05-14T10:27:19;2.63;;;2.42;;
14770;SDS011;7477;45.222;5.688;2023-05-14T10:30:44;4.03;;;2.05;;
14770;SDS011;7477;45.222;5.688;2023-05-14T10:34:04;2.00;;;1.80;;
14770;SDS011;7477;45.222;5.688;2023-05-14T10:38:05;2.47;;;2.28;;
14770;SDS011;7477;45.222;5.688;2023-05-14T10:41:26;2.20;;;2.00;;
14770;SDS011;7477;45.222;5.688;2023-05-14T10:48:13;3.25;;;2.50;;
14770;SDS011;7477;45.222;5.688;2023-05-14T10:51:32;2.55;;;2.35;;
14770;SDS011;7477;45.222;5.688;2023-05-14T10:54:54;2.45;;;2.25;;
14770;SDS011;7477;45.222;5.688;2023-05-14T10:58:17;1.85;;;1.75;;
14770;SDS011;7477;45.222;5.688;2023-05-14T11:01:39;1.83;;;1.65;;
14770;SDS011;7477;45.222;5.688;2023-05-14T11:08:21;1.50;;;1.40;;
14770;SDS011;7477;45.222;5.688;2023-05-14T11:11:40;2.22;;;2.03;;
14770;SDS011;7477;45.222;5.688;2023-05-14T11:15:00;3.95;;;1.88;;
14770;SDS011;7477;45.222;5.688;2023-05-14T11:18:28;1.70;;;1.60;;
14770;SDS011;7477;45.222;5.688;2023-05-14T11:21:49;2.55;;;2.25;;
14770;SDS011;7477;45.222;5.688;2023-05-14T11:25:08;3.13;;;2.22;;
14770;SDS011;7477;45.222;5.688;2023-05-14T11:28:31;2.35;;;2.15;;
14770;SDS011;7477;45.222;5.688;2023-05-14T11:31:50;2.45;;;2.25;;
14770;SDS011;7477;45.222;5.688;2023-05-14T11:35:10;2.47;;;2.28;;
14770;SDS011;7477;45.222;5.688;2023-05-14T11:38:29;2.40;;;2.20;;
14770;SDS011;7477;45.222;5.688;2023-05-14T11:41:48;6.68;;;5.07;;
14770;SDS011;7477;45.222;5.688;2023-05-14T11:45:11;2.72;;;2.50;;
14770;SDS011;7477;45.222;5.688;2023-05-14T11:48:31;2.97;;;2.78;;
14770;SDS011;7477;45.222;5.688;2023-05-14T11:51:58;2.80;;;2.60;;
14770;SDS011;7477;45.222;5.688;2023-05-14T11:55:18;2.20;;;2.00;;
14770;SDS011;7477;45.222;5.688;2023-05-14T11:58:38;2.55;;;2.35;;
14770;SDS011;7477;45.222;5.688;2023-05-14T12:01:58;2.90;;;2.70;;
14770;SDS011;7477;45.222;5.688;2023-05-14T12:05:18;2.65;;;2.45;;
14770;SDS011;7477;45.222;5.688;2023-05-14T12:08:37;3.38;;;2.65;;
14770;SDS011;7477;45.222;5.688;2023-05-14T12:11:56;4.57;;;4.18;;
14770;SDS011;7477;45.222;5.688;2023-05-14T12:15:15;4.47;;;3.72;;
14770;SDS011;7477;45.222;5.688;2023-05-14T12:18:34;4.18;;;3.78;;
14770;SDS011;7477;45.222;5.688;2023-05-14T12:21:54;4.32;;;3.28;;
14770;SDS011;7477;45.222;5.688;2023-05-14T12:25:18;4.55;;;2.90;;
14770;SDS011;7477;45.222;5.688;2023-05-14T12:28:38;3.67;;;3.30;;
14770;SDS011;7477;45.222;5.688;2023-05-14T12:32:00;4.32;;;3.10;;
14770;SDS011;7477;45.222;5.688;2023-05-14T12:35:22;2.92;;;2.67;;
14770;SDS011;7477;45.222;5.688;2023-05-14T12:38:42;5.20;;;2.60;;
14770;SDS011;7477;45.222;5.688;2023-05-14T12:42:01;2.67;;;2.47;;
14770;SDS011;7477;45.222;5.688;2023-05-14T12:45:20;3.45;;;2.63;;
14770;SDS011;7477;45.222;5.688;2023-05-14T12:48:40;14.07;;;3.20;;
14770;SDS011;7477;45.222;5.688;2023-05-14T12:51:59;3.47;;;3.00;;
14770;SDS011;7477;45.222;5.688;2023-05-14T12:55:18;3.40;;;2.80;;
14770;SDS011;7477;45.222;5.688;2023-05-14T12:58:38;4.15;;;3.00;;
14770;SDS011;7477;45.222;5.688;2023-05-14T13:01:58;2.70;;;2.50;;
14770;SDS011;7477;45.222;5.688;2023-05-14T13:05:17;2.85;;;2.47;;
14770;SDS011;7477;45.222;5.688;2023-05-14T13:08:36;2.90;;;2.70;;
14770;SDS011;7477;45.222;5.688;2023-05-14T13:11:55;2.33;;;2.00;;
14770;SDS011;7477;45.222;5.688;2023-05-14T13:15:15;2.67;;;2.42;;
14770;SDS011;7477;45.222;5.688;2023-05-14T13:18:34;2.20;;;2.00;;
14770;SDS011;7477;45.222;5.688;2023-05-14T13:21:53;2.30;;;2.10;;
14770;SDS011;7477;45.222;5.688;2023-05-14T13:25:12;2.05;;;1.88;;
14770;SDS011;7477;45.222;5.688;2023-05-14T13:28:31;2.88;;;2.67;;
14770;SDS011;7477;45.222;5.688;2023-05-14T13:31:51;2.15;;;1.98;;
14770;SDS011;7477;45.222;5.688;2023-05-14T13:35:11;2.10;;;2.00;;
14770;SDS011;7477;45.222;5.688;2023-05-14T13:38:30;2.10;;;1.90;;
14770;SDS011;7477;45.222;5.688;2023-05-14T13:41:50;2.03;;;1.83;;
14770;SDS011;7477;45.222;5.688;2023-05-14T13:45:09;2.33;;;2.13;;
14770;SDS011;7477;45.222;5.688;2023-05-14T13:48:29;2.75;;;2.42;;
14770;SDS011;7477;45.222;5.688;2023-05-14T13:51:49;2.60;;;2.40;;
14770;SDS011;7477;45.222;5.688;2023-05-14T13:55:08;2.22;;;2.03;;
14770;SDS011;7477;45.222;5.688;2023-05-14T13:58:27;3.00;;;2.55;;
14770;SDS011;7477;45.222;5.688;2023-05-14T14:01:47;2.63;;;2.42;;
14770;SDS011;7477;45.222;5.688;2023-05-14T14:05:08;3.05;;;2.80;;
14770;SDS011;7477;45.222;5.688;2023-05-14T14:08:27;2.55;;;2.35;;
14770;SDS011;7477;45.222;5.688;2023-05-14T14:11:47;3.30;;;3.00;;
14770;SDS011;7477;45.222;5.688;2023-05-14T14:15:06;2.40;;;2.20;;
14770;SDS011;7477;45.222;5.688;2023-05-14T14:18:26;3.33;;;2.70;;
14770;SDS011;7477;45.222;5.688;2023-05-14T14:21:45;2.47;;;2.28;;
14770;SDS011;7477;45.222;5.688;2023-05-14T14:25:04;2.60;;;2.40;;
14770;SDS011;7477;45.222;5.688;2023-05-14T14:28:24;2.63;;;2.42;;
14770;SDS011;7477;45.222;5.688;2023-05-14T14:31:44;3.22;;;2.50;;
14770;SDS011;7477;45.222;5.688;2023-05-14T14:35:03;3.45;;;2.45;;
14770;SDS011;7477;45.222;5.688;2023-05-14T14:38:23;2.47;;;2.25;;
14770;SDS011;7477;45.222;5.688;2023-05-14T14:41:42;5.85;;;3.00;;
14770;SDS011;7477;45.222;5.688;2023-05-14T14:45:02;4.50;;;3.30;;
14770;SDS011;7477;45.222;5.688;2023-05-14T14:48:33;2.60;;;2.40;;
14770;SDS011;7477;45.222;5.688;2023-05-14T14:51:56;2.60;;;2.40;;
14770;SDS011;7477;45.222;5.688;2023-05-14T14:55:16;2.72;;;2.47;;
14770;SDS011;7477;45.222;5.688;2023-05-14T14:58:35;2.75;;;2.47;;
14770;SDS011;7477;45.222;5.688;2023-05-14T15:01:54;3.05;;;2.50;;
14770;SDS011;7477;45.222;5.688;2023-05-14T15:05:14;2.72;;;2.15;;
14770;SDS011;7477;45.222;5.688;2023-05-14T15:08:33;2.15;;;1.90;;
14770;SDS011;7477;45.222;5.688;2023-05-14T15:11:53;3.53;;;2.55;;
14770;SDS011;7477;45.222;5.688;2023-05-14T15:15:12;2.53;;;2.33;;
14770;SDS011;7477;45.222;5.688;2023-05-14T15:18:31;1.85;;;1.73;;
14770;SDS011;7477;45.222;5.688;2023-05-14T15:21:50;2.78;;;1.80;;
14770;SDS011;7477;45.222;5.688;2023-05-14T15:25:09;2.70;;;2.33;;
14770;SDS011;7477;45.222;5.688;2023-05-14T15:28:29;2.35;;;2.15;;
14770;SDS011;7477;45.222;5.688;2023-05-14T15:31:48;2.40;;;2.10;;
14770;SDS011;7477;45.222;5.688;2023-05-14T15:35:07;2.83;;;2.63;;
14770;SDS011;7477;45.222;5.688;2023-05-14T15:38:27;2.55;;;2.35;;
14770;SDS011;7477;45.222;5.688;2023-05-14T15:41:46;3.08;;;2.78;;
14770;SDS011;7477;45.222;5.688;2023-05-14T15:45:05;2.80;;;2.60;;
14770;SDS011;7477;45.222;5.688;2023-05-14T15:48:24;2.28;;;2.08;;
14770;SDS011;7477;45.222;5.688;2023-05-14T15:51:43;2.85;;;2.50;;
14770;SDS011;7477;45.222;5.688;2023-05-14T15:55:06;3.63;;;2.78;;
14770;SDS011;7477;45.222;5.688;2023-05-14T15:58:26;2.03;;;1.83;;
14770;SDS011;7477;45.222;5.688;2023-05-14T16:01:45;2.00;;;1.52;;
14770;SDS011;7477;45.222;5.688;2023-05-14T16:05:04;2.20;;;2.00;;
14770;SDS011;7477;45.222;5.688;2023-05-14T16:08:24;4.72;;;2.53;;
14770;SDS011;7477;45.222;5.688;2023-05-14T16:11:43;2.20;;;2.05;;
14770;SDS011;7477;45.222;5.688;2023-05-14T16:15:02;2.08;;;1.98;;
14770;SDS011;7477;45.222;5.688;2023-05-14T16:18:22;2.20;;;2.00;;
14770;SDS011;7477;45.222;5.688;2023-05-14T16:21:43;3.50;;;2.47;;
14770;SDS011;7477;45.222;5.688;2023-05-14T16:25:02;1.88;;;1.70;;
14770;SDS011;7477;45.222;5.688;2023-05-14T16:28:22;2.42;;;2.10;;
14770;SDS011;7477;45.222;5.688;2023-05-14T16:31:41;2.40;;;2.20;;
14770;SDS011;7477;45.222;5.688;2023-05-14T16:35:00;2.42;;;2.22;;
14770;SDS011;7477;45.222;5.688;2023-05-14T16:38:20;3.00;;;2.08;;
14770;SDS011;7477;45.222;5.688;2023-05-14T16:41:39;2.47;;;2.25;;
14770;SDS011;7477;45.222;5.688;2023-05-14T16:44:59;1.88;;;1.77;;
14770;SDS011;7477;45.222;5.688;2023-05-14T16:48:18;2.58;;;2.33;;
14770;SDS011;7477;45.222;5.688;2023-05-14T16:51:37;2.28;;;2.08;;
14770;SDS011;7477;45.222;5.688;2023-05-14T16:55:00;2.15;;;1.95;;
14770;SDS011;7477;45.222;5.688;2023-05-14T16:58:19;2.60;;;2.10;;
14770;SDS011;7477;45.222;5.688;2023-05-14T17:01:38;2.20;;;2.00;;
14770;SDS011;7477;45.222;5.688;2023-05-14T17:04:58;5.90;;;3.72;;
14770;SDS011;7477;45.222;5.688;2023-05-14T17:08:17;2.42;;;2.22;;
14770;SDS011;7477;45.222;5.688;2023-05-14T17:11:36;4.80;;;3.60;;
14770;SDS011;7477;45.222;5.688;2023-05-14T17:14:55;2.40;;;1.83;;
14770;SDS011;7477;45.222;5.688;2023-05-14T17:18:14;4.47;;;3.90;;
14770;SDS011;7477;45.222;5.688;2023-05-14T17:21:34;3.33;;;3.03;;
14770;SDS011;7477;45.222;5.688;2023-05-14T17:24:53;2.00;;;1.90;;
14770;SDS011;7477;45.222;5.688;2023-05-14T17:28:12;2.67;;;2.47;;
14770;SDS011;7477;45.222;5.688;2023-05-14T17:31:31;3.13;;;2.13;;
14770;SDS011;7477;45.222;5.688;2023-05-14T17:34:50;2.90;;;2.28;;
14770;SDS011;7477;45.222;5.688;2023-05-14T17:38:09;3.58;;;2.80;;
14770;SDS011;7477;45.222;5.688;2023-05-14T17:41:29;2.58;;;2.35;;
14770;SDS011;7477;45.222;5.688;2023-05-14T17:44:48;3.50;;;2.05;;
14770;SDS011;7477;45.222;5.688;2023-05-14T17:48:07;4.40;;;3.80;;
14770;SDS011;7477;45.222;5.688;2023-05-14T17:51:26;10.82;;;7.95;;
14770;SDS011;7477;45.222;5.688;2023-05-14T17:54:45;2.90;;;2.45;;
14770;SDS011;7477;45.222;5.688;2023-05-14T17:58:04;5.43;;;4.45;;
14770;SDS011;7477;45.222;5.688;2023-05-14T18:01:23;3.78;;;2.60;;
14770;SDS011;7477;45.222;5.688;2023-05-14T18:04:43;2.58;;;2.38;;
14770;SDS011;7477;45.222;5.688;2023-05-14T18:08:01;2.80;;;2.50;;
14770;SDS011;7477;45.222;5.688;2023-05-14T18:11:21;5.05;;;2.88;;
14770;SDS011;7477;45.222;5.688;2023-05-14T18:14:40;3.22;;;2.80;;
14770;SDS011;7477;45.222;5.688;2023-05-14T18:18:00;4.38;;;2.63;;
14770;SDS011;7477;45.222;5.688;2023-05-14T18:21:19;3.15;;;2.70;;
14770;SDS011;7477;45.222;5.688;2023-05-14T18:24:39;2.35;;;2.15;;
14770;SDS011;7477;45.222;5.688;2023-05-14T18:27:58;2.38;;;2.17;;
14770;SDS011;7477;45.222;5.688;2023-05-14T18:31:17;2.13;;;2.03;;
14770;SDS011;7477;45.222;5.688;2023-05-14T18:34:36;2.72;;;2.25;;
14770;SDS011;7477;45.222;5.688;2023-05-14T18:37:55;2.03;;;1.92;;
14770;SDS011;7477;45.222;5.688;2023-05-14T18:41:14;2.28;;;2.08;;
14770;SDS011;7477;45.222;5.688;2023-05-14T18:44:33;2.45;;;2.25;;
14770;SDS011;7477;45.222;5.688;2023-05-14T18:47:53;2.30;;;2.10;;
14770;SDS011;7477;45.222;5.688;2023-05-14T18:51:13;6.82;;;5.32;;
14770;SDS011;7477;45.222;5.688;2023-05-14T18:54:32;9.50;;;6.78;;
14770;SDS011;7477;45.222;5.688;2023-05-14T18:57:51;5.53;;;4.07;;
14770;SDS011;7477;45.222;5.688;2023-05-14T19:01:10;3.10;;;2.80;;
14770;SDS011;7477;45.222;5.688;2023-05-14T19:04:30;2.22;;;1.92;;
14770;SDS011;7477;45.222;5.688;2023-05-14T19:07:49;3.17;;;2.88;;
14770;SDS011;7477;45.222;5.688;2023-05-14T19:11:09;3.17;;;2.88;;
14770;SDS011;7477;45.222;5.688;2023-05-14T19:14:28;2.55;;;2.22;;
14770;SDS011;7477;45.222;5.688;2023-05-14T19:17:48;3.20;;;2.30;;
14770;SDS011;7477;45.222;5.688;2023-05-14T19:21:08;2.50;;;1.80;;
14770;SDS011;7477;45.222;5.688;2023-05-14T19:24:27;3.95;;;2.65;;
14770;SDS011;7477;45.222;5.688;2023-05-14T19:27:46;6.13;;;3.33;;
14770;SDS011;7477;45.222;5.688;2023-05-14T19:31:08;2.47;;;2.28;;
14770;SDS011;7477;45.222;5.688;2023-05-14T19:34:28;8.35;;;2.63;;
14770;SDS011;7477;45.222;5.688;2023-05-14T19:37:48;4.05;;;3.03;;
14770;SDS011;7477;45.222;5.688;2023-05-14T19:41:07;2.53;;;2.33;;
14770;SDS011;7477;45.222;5.688;2023-05-14T19:44:27;3.22;;;2.10;;
14770;SDS011;7477;45.222;5.688;2023-05-14T19:47:46;2.78;;;2.17;;
14770;SDS011;7477;45.222;5.688;2023-05-14T19:51:05;2.25;;;2.05;;
14770;SDS011;7477;45.222;5.688;2023-05-14T19:54:24;1.75;;;1.65;;
14770;SDS011;7477;45.222;5.688;2023-05-14T19:57:43;2.13;;;1.63;;
14770;SDS011;7477;45.222;5.688;2023-05-14T20:01:03;1.63;;;1.52;;
14770;SDS011;7477;45.222;5.688;2023-05-14T20:04:22;1.70;;;1.58;;
14770;SDS011;7477;45.222;5.688;2023-05-14T20:07:43;3.53;;;1.60;;
14770;SDS011;7477;45.222;5.688;2023-05-14T20:11:05;1.95;;;1.65;;
14770;SDS011;7477;45.222;5.688;2023-05-14T20:14:24;1.63;;;1.52;;
14770;SDS011;7477;45.222;5.688;2023-05-14T20:17:43;2.17;;;1.70;;
14770;SDS011;7477;45.222;5.688;2023-05-14T20:21:03;2.65;;;2.42;;
14770;SDS011;7477;45.222;5.688;2023-05-14T20:24:23;2.22;;;2.03;;
14770;SDS011;7477;45.222;5.688;2023-05-14T20:27:42;1.80;;;1.70;;
14770;SDS011;7477;45.222;5.688;2023-05-14T20:31:02;2.00;;;1.75;;
14770;SDS011;7477;45.222;5.688;2023-05-14T20:34:21;2.30;;;2.08;;